Time;durP1;ratioP1;P1;durP2;ratioP2;P2;SDS_P1;SDS_P2;PMS_P1;PMS_P2;Temp;Humidity;BMP_temperature;BMP_pressure;BME280_temperature;BME280_humidity;BME280_pressure;Samples;Min_cycle;Max_cycle;Signal;HPM_P1;HPM_P2
2022/09/25 00:00:12;;;;;;;2.50;1.92;;;;;;;-145.06;100.00;60892.56;5894732;23;20030;-91
2022/09/25 00:02:51;;;;;;;2.33;1.75;;;;;;;-145.06;100.00;60892.56;5894370;23;20006;-91
2022/09/25 00:05:31;;;;;;;2.75;1.95;;;;;;;-145.06;100.00;60892.56;5893467;23;20010;-92
2022/09/25 00:08:10;;;;;;;2.57;2.17;;;;;;;-145.06;100.00;60892.56;5893983;23;20010;-92
2022/09/25 00:10:50;;;;;;;2.60;1.83;;;;;;;-145.06;100.00;60892.56;5894229;23;20010;-91
2022/09/25 00:13:29;;;;;;;;;;;;;;;-145.06;100.00;60892.56;5894443;23;20010;-91
2022/09/25 00:16:10;;;;;;;2.17;1.80;;;;;;;-145.06;100.00;60892.56;5893914;23;19945;-92
2022/09/25 00:21:51;;;;;;;2.05;1.70;;;;;;;-145.06;100.00;60892.56;5905186;23;20086;-93
2022/09/25 00:24:31;;;;;;;2.20;1.55;;;;;;;-145.06;100.00;60892.56;5894397;23;20010;-91
2022/09/25 00:27:10;;;;;;;2.50;1.95;;;;;;;-145.06;100.00;60892.56;5893420;23;20010;-92
2022/09/25 00:29:49;;;;;;;3.55;2.25;;;;;;;-145.06;100.00;60892.56;5894630;23;20010;-91
2022/09/25 00:32:29;;;;;;;2.63;2.17;;;;;;;-145.06;100.00;60892.56;5893781;23;20002;-91
2022/09/25 00:35:08;;;;;;;3.03;2.40;;;;;;;-145.06;100.00;60892.56;5894085;23;20006;-90
2022/09/25 00:37:47;;;;;;;2.72;2.10;;;;;;;-145.06;100.00;60892.56;5893447;23;20010;-92
2022/09/25 00:40:26;;;;;;;3.25;2.42;;;;;;;-145.06;100.00;60892.56;5894398;23;20030;-94
2022/09/25 00:43:13;;;;;;;3.13;2.42;;;;;;;-145.06;100.00;60892.56;5894014;23;20181;-93
2022/09/25 00:45:52;;;;;;;3.38;2.33;;;;;;;-145.06;100.00;60892.56;5893069;23;20026;-93
2022/09/25 00:48:32;;;;;;;2.70;2.05;;;;;;;-145.06;100.00;60892.56;5894424;23;20054;-92
2022/09/25 00:51:13;;;;;;;3.03;2.35;;;;;;;-145.06;100.00;60892.56;5893944;23;20003;-91
2022/09/25 00:53:53;;;;;;;3.70;2.50;;;;;;;-145.06;100.00;60892.56;5893669;23;20018;-91
2022/09/25 00:56:39;;;;;;;2.80;2.30;;;;;;;-145.06;100.00;60892.56;5894198;23;20030;-91
2022/09/25 00:59:32;;;;;;;2.95;2.42;;;;;;;-145.06;100.00;60892.56;5896008;23;20338;-93
2022/09/25 01:02:18;;;;;;;3.38;2.55;;;;;;;-145.06;100.00;60892.56;5895862;23;20311;-92
2022/09/25 01:05:01;;;;;;;3.03;2.72;;;;;;;-145.06;100.00;60892.56;5896561;23;20006;-92
2022/09/25 01:07:45;;;;;;;3.40;3.03;;;;;;;-145.06;100.00;60892.56;5921764;23;20034;-92
2022/09/25 01:10:24;;;;;;;3.33;2.63;;;;;;;-145.06;100.00;60892.56;5988127;23;20021;-92
2022/09/25 01:13:05;;;;;;;4.00;3.42;;;;;;;-145.06;100.00;60892.56;5981563;23;20009;-92
2022/09/25 01:15:48;;;;;;;4.43;3.55;;;;;;;-145.06;100.00;60892.56;5981295;23;20056;-90
2022/09/25 01:18:33;;;;;;;2.72;2.42;;;;;;;-145.06;100.00;60892.56;5981516;23;20012;-91
2022/09/25 01:21:36;;;;;;;3.67;3.20;;;;;;;-145.06;100.00;60892.56;5981164;23;20001;-92
2022/09/25 01:24:53;;;;;;;4.70;3.30;;;;;;;-145.06;100.00;60892.56;5981655;23;20029;-92
2022/09/25 01:27:54;;;;;;;4.55;2.80;;;;;;;-145.06;100.00;60892.56;5981684;23;19997;-91
2022/09/25 01:30:40;;;;;;;3.65;2.80;;;;;;;-145.06;100.00;60892.56;5981643;23;20005;-92
2022/09/25 01:33:30;;;;;;;3.28;2.80;;;;;;;-145.06;100.00;60892.56;5980509;23;20313;-93
2022/09/25 01:36:21;;;;;;;2.70;2.33;;;;;;;-145.06;100.00;60892.56;5980258;23;20009;-92
2022/09/25 01:39:31;;;;;;;3.03;2.33;;;;;;;-145.06;100.00;60892.56;5980570;23;20004;-91
2022/09/25 01:42:18;;;;;;;3.00;2.35;;;;;;;-145.06;100.00;60892.56;5957434;23;20000;-91
2022/09/25 01:45:04;;;;;;;2.65;2.17;;;;;;;-145.06;100.00;60892.56;5980796;23;20092;-91
2022/09/25 01:47:47;;;;;;;3.25;2.17;;;;;;;-145.06;100.00;60892.56;5980106;23;20001;-90
2022/09/25 01:50:39;;;;;;;2.50;2.30;;;;;;;-145.06;100.00;60892.56;5980008;23;20009;-92
2022/09/25 01:53:25;;;;;;;2.92;2.30;;;;;;;-145.06;100.00;60892.56;5981453;23;20001;-91
2022/09/25 01:56:18;;;;;;;2.97;2.50;;;;;;;-145.06;100.00;60892.56;5981056;23;20016;-92
2022/09/25 01:59:07;;;;;;;3.45;2.20;;;;;;;-145.06;100.00;60892.56;5980589;23;20448;-92
2022/09/25 02:01:47;;;;;;;2.28;2.00;;;;;;;-145.06;100.00;60892.56;5981162;23;20001;-91
2022/09/25 02:04:53;;;;;;;3.42;2.03;;;;;;;-145.06;100.00;60892.56;5980616;23;20491;-92
2022/09/25 02:07:41;;;;;;;3.60;2.05;;;;;;;-145.06;100.00;60892.56;5979997;23;20001;-92
2022/09/25 02:10:30;;;;;;;3.10;1.90;;;;;;;-145.06;100.00;60892.56;5981361;23;20302;-92
2022/09/25 02:13:14;;;;;;;2.40;1.75;;;;;;;-145.06;100.00;60892.56;5980581;23;20072;-91
2022/09/25 02:16:01;;;;;;;2.15;1.88;;;;;;;-145.06;100.00;60892.56;5980516;23;20084;-90
2022/09/25 02:22:06;;;;;;;3.85;2.22;;;;;;;-145.06;100.00;60892.56;5990893;23;20001;-92
2022/09/25 02:24:55;;;;;;;1.90;1.70;;;;;;;-145.06;100.00;60892.56;5980384;23;20008;-92
2022/09/25 02:27:34;;;;;;;3.00;2.03;;;;;;;-145.06;100.00;60892.56;5981190;23;20005;-92
2022/09/25 02:30:14;;;;;;;2.30;1.83;;;;;;;-145.06;100.00;60892.56;5980686;23;20013;-91
2022/09/25 02:32:53;;;;;;;3.78;1.60;;;;;;;-145.06;100.00;60892.56;5980384;23;20399;-91
2022/09/25 02:35:32;;;;;;;2.95;1.50;;;;;;;-145.06;100.00;60892.56;5980748;23;20009;-91
2022/09/25 02:38:12;;;;;;;2.58;1.42;;;;;;;-145.06;100.00;60892.56;5980060;23;20012;-90
2022/09/25 02:41:03;;;;;;;;;;;;;;;-145.06;100.00;60892.56;5981569;23;20009;-91
2022/09/25 02:44:03;;;;;;;1.92;1.33;;;;;;;-145.06;100.00;60892.56;5979779;23;20311;-92
2022/09/25 02:47:05;;;;;;;2.42;1.50;;;;;;;-145.06;100.00;60892.56;5980795;23;20005;-92
2022/09/25 02:49:50;;;;;;;1.80;1.10;;;;;;;-145.06;100.00;60892.56;5980596;23;20084;-92
2022/09/25 02:52:44;;;;;;;1.52;1.15;;;;;;;-145.06;100.00;60892.56;5980493;23;19997;-91
2022/09/25 02:55:28;;;;;;;2.00;1.38;;;;;;;-145.06;100.00;60892.56;5980826;23;20032;-91
2022/09/25 02:58:28;;;;;;;1.33;1.10;;;;;;;-145.06;100.00;60892.56;5980890;23;20036;-90
2022/09/25 03:01:11;;;;;;;1.75;1.13;;;;;;;-145.06;100.00;60892.56;5979913;23;20248;-91
2022/09/25 03:03:53;;;;;;;2.00;1.15;;;;;;;-145.06;100.00;60892.56;5980514;23;20009;-90
2022/09/25 03:06:32;;;;;;;1.55;0.90;;;;;;;-145.06;100.00;60892.56;5979464;23;20001;-91
2022/09/25 03:09:14;;;;;;;1.17;1.00;;;;;;;-145.06;100.00;60892.56;5980649;23;20012;-92
2022/09/25 03:11:54;;;;;;;2.58;1.00;;;;;;;-145.06;100.00;60892.56;5979751;23;20001;-91
2022/09/25 03:14:33;;;;;;;1.75;1.10;;;;;;;-145.06;100.00;60892.56;5980645;23;20278;-91
2022/09/25 03:17:15;;;;;;;2.00;1.10;;;;;;;-145.06;100.00;60892.56;5980224;23;20009;-91
2022/09/25 03:19:53;;;;;;;1.42;0.98;;;;;;;-145.06;100.00;60892.56;5979254;23;20233;-92
2022/09/25 03:22:32;;;;;;;1.40;0.80;;;;;;;-145.06;100.00;60892.56;5980174;23;20001;-93
2022/09/25 03:25:12;;;;;;;1.87;1.17;;;;;;;-145.06;100.00;60892.56;5979331;23;20044;-91
2022/09/25 03:27:51;;;;;;;3.13;1.08;;;;;;;-145.06;100.00;60892.56;5980175;23;20236;-91
2022/09/25 03:30:30;;;;;;;0.85;0.70;;;;;;;-145.06;100.00;60892.56;5980058;23;20056;-91
2022/09/25 03:33:11;;;;;;;0.87;0.70;;;;;;;-145.06;100.00;60892.56;5979948;23;20005;-92
2022/09/25 03:36:03;;;;;;;1.35;0.80;;;;;;;-145.06;100.00;60892.56;5979561;23;20064;-92
2022/09/25 03:38:44;;;;;;;1.40;0.80;;;;;;;-145.06;100.00;60892.56;5979984;23;20017;-91
2022/09/25 03:41:25;;;;;;;0.90;0.80;;;;;;;-145.06;100.00;60892.56;5979299;23;20005;-91
2022/09/25 03:44:05;;;;;;;1.85;0.90;;;;;;;-145.06;100.00;60892.56;5980326;23;20025;-92
2022/09/25 03:46:43;;;;;;;1.10;0.90;;;;;;;-145.06;100.00;60892.56;5978822;23;20444;-91
2022/09/25 03:49:23;;;;;;;1.73;1.10;;;;;;;-145.06;100.00;60892.56;5979848;23;20236;-91
2022/09/25 03:52:02;;;;;;;1.23;1.08;;;;;;;-145.06;100.00;60892.56;5979663;23;20309;-93
2022/09/25 03:54:41;;;;;;;1.50;1.00;;;;;;;-145.06;100.00;60892.56;5980784;23;20013;-92
2022/09/25 03:57:20;;;;;;;1.67;1.00;;;;;;;-145.06;100.00;60892.56;5978484;23;20013;-92
2022/09/25 04:00:02;;;;;;;1.30;1.10;;;;;;;-145.06;100.00;60892.56;5977432;23;20009;-91
2022/09/25 04:02:41;;;;;;;1.88;1.08;;;;;;;-145.06;100.00;60892.56;5979478;23;20244;-91
2022/09/25 04:05:20;;;;;;;1.08;0.98;;;;;;;-145.06;100.00;60892.56;5978649;23;20464;-91
2022/09/25 04:08:00;;;;;;;1.52;1.00;;;;;;;-145.06;100.00;60892.56;5978809;23;20040;-91
2022/09/25 04:10:39;;;;;;;2.50;1.00;;;;;;;-145.06;100.00;60892.56;5979999;23;20080;-91
2022/09/25 04:13:18;;;;;;;2.25;1.13;;;;;;;-145.06;100.00;60892.56;5978873;23;20005;-92
2022/09/25 04:15:59;;;;;;;1.10;0.90;;;;;;;-145.06;100.00;60892.56;5979458;23;20009;-91
2022/09/25 04:18:41;;;;;;;2.20;1.00;;;;;;;-145.06;100.00;60892.56;5979221;23;20005;-92
2022/09/25 04:21:20;;;;;;;2.33;1.15;;;;;;;-145.06;100.00;60892.56;5978645;23;19997;-91
2022/09/25 04:26:57;;;;;;;1.17;0.90;;;;;;;-145.06;100.00;60892.56;5989622;23;20009;-91
2022/09/25 04:29:36;;;;;;;1.35;1.00;;;;;;;-145.06;100.00;60892.56;5979143;23;20005;-92
2022/09/25 04:35:14;;;;;;;1.75;1.00;;;;;;;-145.06;100.00;60892.56;5988924;23;20309;-92
2022/09/25 04:37:53;;;;;;;1.53;1.10;;;;;;;-145.06;100.00;60892.56;5977762;23;20013;-90
2022/09/25 04:40:33;;;;;;;2.05;1.05;;;;;;;-145.06;100.00;60892.56;5979149;23;20237;-92
2022/09/25 04:43:12;;;;;;;2.07;1.23;;;;;;;-145.06;100.00;60892.56;5979427;23;20005;-91
2022/09/25 04:45:51;;;;;;;2.13;1.35;;;;;;;-145.06;100.00;60892.56;5978317;23;20312;-89
2022/09/25 04:48:31;;;;;;;1.85;1.35;;;;;;;-145.06;100.00;60892.56;5976275;23;20004;-91
2022/09/25 04:51:10;;;;;;;;;;;;;;;-145.06;100.00;60892.56;5977108;23;20005;-91
2022/09/25 04:53:49;;;;;;;1.67;0.83;;;;;;;-145.06;100.00;60892.56;5976433;23;19904;-91
2022/09/25 04:56:28;;;;;;;1.52;1.10;;;;;;;-145.06;100.00;60892.56;5987630;23;20009;-91
2022/09/25 04:59:07;;;;;;;1.40;1.00;;;;;;;-145.06;100.00;60892.56;5976493;23;20009;-91
2022/09/25 05:01:46;;;;;;;2.15;1.20;;;;;;;-145.06;100.00;60892.56;5976087;23;19997;-92
2022/09/25 05:04:25;;;;;;;2.13;1.27;;;;;;;-145.06;100.00;60892.56;5976027;23;20013;-90
2022/09/25 05:07:04;;;;;;;1.88;1.40;;;;;;;-145.06;100.00;60892.56;5975827;23;20534;-91
2022/09/25 05:09:43;;;;;;;2.70;1.30;;;;;;;-145.06;100.00;60892.56;5975894;23;20016;-91
2022/09/25 05:12:22;;;;;;;1.70;1.20;;;;;;;-145.06;100.00;60892.56;5975184;23;20001;-92
2022/09/25 05:15:01;;;;;;;1.77;1.00;;;;;;;-145.06;100.00;60892.56;5973962;23;20356;-91
2022/09/25 05:17:40;;;;;;;2.53;0.73;;;;;;;-145.06;100.00;60892.56;5971064;23;20036;-89
2022/09/25 05:20:19;;;;;;;1.10;0.77;;;;;;;-145.06;100.00;60892.56;5972786;23;20237;-90
2022/09/25 05:22:58;;;;;;;1.65;1.00;;;;;;;-145.06;100.00;60892.56;5971413;23;20005;-91
2022/09/25 05:25:37;;;;;;;1.10;0.80;;;;;;;-145.06;100.00;60892.56;5971279;23;20278;-90
2022/09/25 05:28:17;;;;;;;0.87;0.67;;;;;;;-145.06;100.00;60892.56;5972072;23;20013;-91
2022/09/25 05:31:00;;;;;;;2.25;0.70;;;;;;;-145.06;100.00;60892.56;5972305;23;20088;-91
2022/09/25 05:33:39;;;;;;;1.08;0.70;;;;;;;-145.06;100.00;60892.56;5970729;23;20009;-90
2022/09/25 05:36:19;;;;;;;1.23;0.52;;;;;;;-145.06;100.00;60892.56;5972606;23;20009;-90
2022/09/25 05:38:59;;;;;;;1.42;0.55;;;;;;;-145.06;100.00;60892.56;5971674;23;20009;-90
2022/09/25 05:41:38;;;;;;;1.33;0.60;;;;;;;-145.06;100.00;60892.56;5971763;23;20001;-90
2022/09/25 05:44:17;;;;;;;0.70;0.50;;;;;;;-145.06;100.00;60892.56;5973775;23;20036;-90
2022/09/25 05:46:56;;;;;;;1.00;0.70;;;;;;;-145.06;100.00;60892.56;5973316;23;20017;-90
2022/09/25 05:49:35;;;;;;;2.10;0.67;;;;;;;-145.06;100.00;60892.56;5973889;23;20013;-92
2022/09/25 05:52:14;;;;;;;0.60;0.50;;;;;;;-145.06;100.00;60892.56;5985486;23;20004;-90
2022/09/25 05:54:53;;;;;;;1.58;0.68;;;;;;;-145.06;100.00;60892.56;5981817;23;20233;-91
2022/09/25 05:57:34;;;;;;;2.25;0.73;;;;;;;-145.06;100.00;60892.56;5972515;23;20013;-91
2022/09/25 06:00:15;;;;;;;1.27;0.50;;;;;;;-145.06;100.00;60892.56;5975438;23;20012;-90
2022/09/25 06:02:54;;;;;;;0.70;0.50;;;;;;;-145.06;100.00;60892.56;5978273;23;20024;-91
2022/09/25 06:05:33;;;;;;;1.10;0.63;;;;;;;-145.06;100.00;60892.56;5978422;23;20034;-91
2022/09/25 06:08:13;;;;;;;0.90;0.50;;;;;;;-145.06;100.00;60892.56;5977788;23;20162;-91
2022/09/25 06:10:56;;;;;;;1.38;0.40;;;;;;;-145.06;100.00;60892.56;5978944;23;20244;-90
2022/09/25 06:13:35;;;;;;;1.70;0.40;;;;;;;-145.06;100.00;60892.56;5978366;23;20028;-92
2022/09/25 06:16:18;;;;;;;1.52;0.55;;;;;;;-145.06;100.00;60892.56;5978078;23;20436;-91
2022/09/25 06:18:57;;;;;;;1.85;0.40;;;;;;;-145.06;100.00;60892.56;5978311;23;20013;-91
2022/09/25 06:21:36;;;;;;;1.47;0.47;;;;;;;-145.06;100.00;60892.56;5978390;23;20009;-92
2022/09/25 06:24:15;;;;;;;0.68;0.40;;;;;;;-145.06;100.00;60892.56;5976723;23;20244;-90
2022/09/25 06:26:54;;;;;;;1.48;0.70;;;;;;;-145.06;100.00;60892.56;5976583;23;20013;-90
2022/09/25 06:29:33;;;;;;;1.10;0.47;;;;;;;-145.06;100.00;60892.56;5974960;23;20009;-90
2022/09/25 06:32:12;;;;;;;0.50;0.50;;;;;;;-145.06;100.00;60892.56;5974667;23;20009;-91
2022/09/25 06:34:51;;;;;;;0.73;0.40;;;;;;;-145.06;100.00;60892.56;5976863;23;20013;-90
2022/09/25 06:37:30;;;;;;;0.90;0.37;;;;;;;-145.06;100.00;60892.56;5975877;23;20240;-90
2022/09/25 06:40:09;;;;;;;0.90;0.40;;;;;;;-145.06;100.00;60892.56;5974220;23;20064;-90
2022/09/25 06:42:54;;;;;;;2.03;0.52;;;;;;;-145.06;100.00;60892.56;5973186;23;20009;-91
2022/09/25 06:45:33;;;;;;;1.33;0.50;;;;;;;-145.06;100.00;60892.56;5975013;23;20013;-91
2022/09/25 06:48:15;;;;;;;0.85;0.50;;;;;;;-145.06;100.00;60892.56;5977195;23;20084;-92
2022/09/25 06:50:55;;;;;;;1.98;0.70;;;;;;;-145.06;100.00;60892.56;5976684;23;20009;-91
2022/09/25 06:53:35;;;;;;;2.33;0.60;;;;;;;-145.06;100.00;60892.56;5975704;23;20009;-91
2022/09/25 06:56:14;;;;;;;0.80;0.45;;;;;;;-145.06;100.00;60892.56;5977658;23;20088;-91
2022/09/25 06:58:53;;;;;;;1.13;0.50;;;;;;;-145.06;100.00;60892.56;5977438;23;20009;-92
2022/09/25 07:01:32;;;;;;;1.25;0.50;;;;;;;-145.06;100.00;60892.56;5979843;23;20140;-90
2022/09/25 07:04:12;;;;;;;1.27;0.40;;;;;;;-145.06;100.00;60892.56;5980194;23;20013;-92
2022/09/25 07:06:55;;;;;;;0.40;0.40;;;;;;;-145.06;100.00;60892.56;5979799;23;20001;-90
2022/09/25 07:09:34;;;;;;;0.90;0.35;;;;;;;-145.06;100.00;60892.56;5979101;23;20013;-91
2022/09/25 07:12:14;;;;;;;0.57;0.50;;;;;;;-145.06;100.00;60892.56;5979405;23;20009;-92
2022/09/25 07:14:53;;;;;;;0.57;0.50;;;;;;;-145.06;100.00;60892.56;5979680;23;20005;-91
2022/09/25 07:17:32;;;;;;;1.40;0.38;;;;;;;-145.06;100.00;60892.56;5980209;23;20069;-92
2022/09/25 07:20:14;;;;;;;1.73;0.60;;;;;;;-145.06;100.00;60892.56;5980376;23;20009;-90
2022/09/25 07:22:58;;;;;;;1.38;0.57;;;;;;;-145.06;100.00;60892.56;5978857;23;19997;-92
2022/09/25 07:25:37;;;;;;;0.82;0.50;;;;;;;-145.06;100.00;60892.56;5977785;23;20059;-91
2022/09/25 07:28:18;;;;;;;0.47;0.40;;;;;;;-145.06;100.00;60892.56;5978036;23;20084;-91
2022/09/25 07:30:57;;;;;;;1.08;0.50;;;;;;;-145.06;100.00;60892.56;5978664;23;20013;-91
2022/09/25 07:33:40;;;;;;;1.40;0.40;;;;;;;-145.06;100.00;60892.56;5978159;23;20064;-92
2022/09/25 07:36:19;;;;;;;1.55;0.45;;;;;;;-145.06;100.00;60892.56;5979170;23;20549;-91
2022/09/25 07:38:59;;;;;;;1.38;0.52;;;;;;;-145.06;100.00;60892.56;5978290;23;20009;-92
2022/09/25 07:41:38;;;;;;;0.90;0.50;;;;;;;-145.06;100.00;60892.56;5978258;23;20036;-92
2022/09/25 07:44:17;;;;;;;0.65;0.32;;;;;;;-145.06;100.00;60892.56;5978599;23;20012;-91
2022/09/25 07:46:57;;;;;;;3.08;0.60;;;;;;;-145.06;100.00;60892.56;5977989;23;20009;-92
2022/09/25 07:49:36;;;;;;;1.52;0.50;;;;;;;-145.06;100.00;60892.56;5978069;23;20009;-91
2022/09/25 07:52:15;;;;;;;0.52;0.52;;;;;;;-145.06;100.00;60892.56;5988069;23;20009;-91
2022/09/25 07:54:54;;;;;;;1.73;0.40;;;;;;;-145.06;100.00;60892.56;5977446;23;20005;-91
2022/09/25 07:57:33;;;;;;;0.97;0.60;;;;;;;-145.06;100.00;60892.56;5978036;23;20009;-91
2022/09/25 08:00:12;;;;;;;1.35;0.60;;;;;;;-145.06;100.00;60892.56;5978253;23;20013;-91
2022/09/25 08:02:58;;;;;;;1.05;0.50;;;;;;;-145.06;100.00;60892.56;5977661;23;20009;-90
2022/09/25 08:05:37;;;;;;;1.65;0.52;;;;;;;-145.06;100.00;60892.56;5977650;23;20009;-91
2022/09/25 08:08:16;;;;;;;0.80;0.40;;;;;;;-145.06;100.00;60892.56;5977227;23;20009;-90
2022/09/25 08:11:08;;;;;;;0.90;0.50;;;;;;;-145.06;100.00;60892.56;5977706;23;20013;-90
2022/09/25 08:13:48;;;;;;;1.30;0.50;;;;;;;-145.06;100.00;60892.56;5977354;23;20009;-90
2022/09/25 08:16:27;;;;;;;1.10;0.50;;;;;;;-145.06;100.00;60892.56;5977402;23;20282;-90
2022/09/25 08:19:06;;;;;;;1.48;0.50;;;;;;;-145.06;100.00;60892.56;5977405;23;20009;-89
2022/09/25 08:21:45;;;;;;;1.23;0.60;;;;;;;-145.06;100.00;60892.56;5977165;23;20471;-90
2022/09/25 08:24:24;;;;;;;1.90;0.70;;;;;;;-145.06;100.00;60892.56;5977575;23;20017;-90
2022/09/25 08:27:04;;;;;;;0.63;0.40;;;;;;;-145.06;100.00;60892.56;5977496;23;20009;-90
2022/09/25 08:29:43;;;;;;;0.77;0.55;;;;;;;-145.06;100.00;60892.56;5977228;23;20064;-91
2022/09/25 08:32:22;;;;;;;1.77;0.67;;;;;;;-145.06;100.00;60892.56;5977450;23;20009;-91
2022/09/25 08:35:02;;;;;;;1.00;0.50;;;;;;;-145.06;100.00;60892.56;5976918;23;20244;-90
2022/09/25 08:37:41;;;;;;;0.55;0.40;;;;;;;-145.06;100.00;60892.56;5976696;23;20312;-91
2022/09/25 08:40:25;;;;;;;1.55;0.55;;;;;;;-145.06;100.00;60892.56;5978368;23;20013;-90
2022/09/25 08:43:07;;;;;;;1.27;0.40;;;;;;;-145.06;100.00;60892.56;5977246;23;20013;-90
2022/09/25 08:49:04;;;;;;;1.00;0.40;;;;;;;-145.06;100.00;60892.56;5988118;23;20013;-91
2022/09/25 08:51:48;;;;;;;0.75;0.40;;;;;;;-145.06;100.00;60892.56;5976753;23;20005;-91
2022/09/25 08:54:30;;;;;;;0.52;0.40;;;;;;;-145.06;100.00;60892.56;5977965;23;20012;-91
2022/09/25 08:57:19;;;;;;;0.77;0.43;;;;;;;-145.06;100.00;60892.56;5976536;23;20009;-90
2022/09/25 09:00:03;;;;;;;1.63;0.40;;;;;;;-145.06;100.00;60892.56;5977840;23;20032;-91
2022/09/25 09:02:51;;;;;;;0.80;0.45;;;;;;;-145.06;100.00;60892.56;5978033;23;20005;-90
2022/09/25 09:05:36;;;;;;;0.82;0.22;;;;;;;-145.06;100.00;60892.56;5976899;23;20116;-90
2022/09/25 09:08:24;;;;;;;1.58;0.30;;;;;;;-145.06;100.00;60892.56;5977161;23;20525;-90
2022/09/25 09:11:12;;;;;;;1.50;0.50;;;;;;;-145.06;100.00;60892.56;5977619;23;20325;-91
2022/09/25 09:14:02;;;;;;;1.10;0.32;;;;;;;-145.06;100.00;60892.56;5976998;23;20005;-91
2022/09/25 09:16:57;;;;;;;2.92;0.30;;;;;;;-145.06;100.00;60892.56;5976771;23;20013;-92
2022/09/25 09:19:37;;;;;;;2.65;0.47;;;;;;;-145.06;100.00;60892.56;5979088;23;20008;-90
2022/09/25 09:22:38;;;;;;;0.40;0.20;;;;;;;-145.06;100.00;60892.56;5978845;23;20001;-92
2022/09/25 09:25:45;;;;;;;0.50;0.22;;;;;;;-145.06;100.00;60892.56;5978938;23;20013;-91
2022/09/25 09:28:47;;;;;;;0.85;0.30;;;;;;;-145.06;100.00;60892.56;5978474;23;20009;-92
2022/09/25 09:31:29;;;;;;;0.82;0.35;;;;;;;-145.06;100.00;60892.56;5978448;23;20005;-91
2022/09/25 09:34:34;;;;;;;1.88;0.40;;;;;;;-145.06;100.00;60892.56;5979245;23;20013;-91
2022/09/25 09:37:39;;;;;;;0.80;0.40;;;;;;;-145.06;100.00;60892.56;5978532;23;20005;-90
2022/09/25 09:40:44;;;;;;;0.50;0.20;;;;;;;-145.06;100.00;60892.56;5977344;23;20009;-91
2022/09/25 09:43:53;;;;;;;0.85;0.38;;;;;;;-145.06;100.00;60892.56;5979159;23;20005;-89
2022/09/25 09:47:06;;;;;;;0.30;0.30;;;;;;;-145.06;100.00;60892.56;5977970;23;20325;-91
2022/09/25 09:50:02;;;;;;;0.88;0.22;;;;;;;-145.06;100.00;60892.56;5978770;23;20065;-91
2022/09/25 09:52:44;;;;;;;0.73;0.28;;;;;;;-145.06;100.00;60892.56;5978500;23;20436;-91
2022/09/25 09:55:39;;;;;;;0.60;0.30;;;;;;;-145.06;100.00;60892.56;5979103;23;20008;-90
2022/09/25 09:58:45;;;;;;;0.80;0.30;;;;;;;-145.06;100.00;60892.56;5979707;23;20009;-90
2022/09/25 10:01:28;;;;;;;0.98;0.30;;;;;;;-145.06;100.00;60892.56;5978313;23;20032;-91
2022/09/25 10:04:09;;;;;;;1.15;0.38;;;;;;;-145.06;100.00;60892.56;5978574;23;20017;-91
2022/09/25 10:07:03;;;;;;;0.63;0.25;;;;;;;-145.06;100.00;60892.56;5978910;23;20008;-90
2022/09/25 10:09:42;;;;;;;0.85;0.30;;;;;;;-145.06;100.00;60892.56;5978453;23;20294;-91
2022/09/25 10:12:32;;;;;;;0.95;0.40;;;;;;;-145.06;100.00;60892.56;5979080;23;20005;-91
2022/09/25 10:15:32;;;;;;;;;;;;;;;-145.06;100.00;60892.56;5979071;23;20009;-91
2022/09/25 10:18:12;;;;;;;1.45;0.40;;;;;;;-145.06;100.00;60892.56;5977896;23;19928;-92
2022/09/25 10:21:04;;;;;;;0.55;0.22;;;;;;;-145.06;100.00;60892.56;5978850;23;20325;-90
2022/09/25 10:23:45;;;;;;;0.90;0.35;;;;;;;-145.06;100.00;60892.56;5987831;23;20320;-90
2022/09/25 10:26:35;;;;;;;1.15;0.40;;;;;;;-145.06;100.00;60892.56;5979086;23;20012;-90
2022/09/25 10:29:20;;;;;;;2.35;0.30;;;;;;;-145.06;100.00;60892.56;5980095;23;20013;-93
2022/09/25 10:32:02;;;;;;;0.43;0.20;;;;;;;-145.06;100.00;60892.56;5978675;23;20004;-91
2022/09/25 10:34:51;;;;;;;0.60;0.32;;;;;;;-145.06;100.00;60892.56;5979915;23;20068;-92
2022/09/25 10:37:35;;;;;;;1.70;0.60;;;;;;;-145.06;100.00;60892.56;5979118;23;20012;-91
2022/09/25 10:40:34;;;;;;;0.32;0.20;;;;;;;-145.06;100.00;60892.56;5978759;23;20009;-91
2022/09/25 10:43:19;;;;;;;0.30;0.20;;;;;;;-145.06;100.00;60892.56;5978051;23;20013;-90
2022/09/25 10:46:13;;;;;;;1.13;0.30;;;;;;;-145.06;100.00;60892.56;5979000;23;20009;-92
2022/09/25 10:52:13;;;;;;;0.10;0.10;;;;;;;-145.06;100.00;60892.56;5989469;23;20005;-92
2022/09/25 10:55:13;;;;;;;0.45;0.20;;;;;;;-145.06;100.00;60892.56;5978416;23;20057;-91
2022/09/25 10:57:57;;;;;;;0.30;0.30;;;;;;;-145.06;100.00;60892.56;5979097;23;20009;-92
2022/09/25 11:00:52;;;;;;;0.70;0.30;;;;;;;-145.06;100.00;60892.56;5978296;23;20325;-90
2022/09/25 11:03:34;;;;;;;1.38;0.30;;;;;;;-145.06;100.00;60892.56;5978617;23;20005;-92
2022/09/25 11:06:15;;;;;;;0.65;0.40;;;;;;;-145.06;100.00;60892.56;5978641;23;20013;-91
2022/09/25 11:08:57;;;;;;;1.25;0.60;;;;;;;-145.06;100.00;60892.56;5978231;23;20008;-92
2022/09/25 11:11:39;;;;;;;0.45;0.20;;;;;;;-145.06;100.00;60892.56;5978627;23;20001;-91
2022/09/25 11:14:31;;;;;;;0.82;0.20;;;;;;;-145.06;100.00;60892.56;5978616;23;20009;-93
2022/09/25 11:17:32;;;;;;;0.55;0.32;;;;;;;-145.06;100.00;60892.56;5977742;23;20043;-92
2022/09/25 11:20:15;;;;;;;0.65;0.10;;;;;;;-145.06;100.00;60892.56;5978969;23;20005;-93
2022/09/25 11:23:14;;;;;;;0.65;0.20;;;;;;;-145.06;100.00;60892.56;5977920;23;20440;-92
2022/09/25 11:26:07;;;;;;;0.80;0.20;;;;;;;-145.06;100.00;60892.56;5978753;23;20092;-92
2022/09/25 11:29:15;;;;;;;0.52;0.20;;;;;;;-145.06;100.00;60892.56;5989589;23;20008;-91
2022/09/25 11:32:11;;;;;;;0.40;0.20;;;;;;;-145.06;100.00;60892.56;5977429;23;20005;-93
2022/09/25 11:34:57;;;;;;;0.50;0.25;;;;;;;-145.06;100.00;60892.56;5978707;23;20290;-93
2022/09/25 11:37:51;;;;;;;0.50;0.20;;;;;;;-145.06;100.00;60892.56;5978167;23;20025;-92
2022/09/25 11:41:11;;;;;;;0.57;0.17;;;;;;;-145.06;100.00;60892.56;5977860;23;20009;-91
2022/09/25 11:43:58;;;;;;;0.55;0.20;;;;;;;-145.06;100.00;60892.56;5977757;23;20009;-92
2022/09/25 11:47:01;;;;;;;0.50;0.20;;;;;;;-145.06;100.00;60892.56;5977052;23;20318;-91
2022/09/25 11:49:41;;;;;;;0.63;0.20;;;;;;;-145.06;100.00;60892.56;5978981;23;20012;-92
2022/09/25 11:53:18;;;;;;;0.20;0.20;;;;;;;-145.06;100.00;60892.56;5978134;23;20004;-92
2022/09/25 11:56:09;;;;;;;0.47;0.20;;;;;;;-145.06;100.00;60892.56;5978169;23;20009;-92
2022/09/25 11:59:02;;;;;;;0.50;0.25;;;;;;;-145.06;100.00;60892.56;5978627;23;20321;-93
2022/09/25 12:01:49;;;;;;;0.32;0.10;;;;;;;-145.06;100.00;60892.56;5978128;23;20202;-92
2022/09/25 12:04:41;;;;;;;1.13;0.20;;;;;;;-145.06;100.00;60892.56;5978743;23;20036;-93
2022/09/25 12:07:32;;;;;;;1.58;0.38;;;;;;;-145.06;100.00;60892.56;5977948;23;20009;-92
2022/09/25 12:10:32;;;;;;;0.90;0.28;;;;;;;-145.06;100.00;60892.56;5977979;23;20009;-92
2022/09/25 12:13:21;;;;;;;0.47;0.20;;;;;;;-145.06;100.00;60892.56;5977709;23;20084;-91
2022/09/25 12:16:22;;;;;;;0.40;0.25;;;;;;;-145.06;100.00;60892.56;5977622;23;20459;-92
2022/09/25 12:19:22;;;;;;;0.77;0.40;;;;;;;-145.06;100.00;60892.56;5978001;23;20009;-93
2022/09/25 12:22:19;;;;;;;1.27;0.30;;;;;;;-145.06;100.00;60892.56;5977381;23;20040;-91
2022/09/25 12:25:26;;;;;;;0.75;0.28;;;;;;;-145.06;100.00;60892.56;5977875;23;20005;-92
2022/09/25 12:28:28;;;;;;;0.40;0.20;;;;;;;-145.06;100.00;60892.56;5978319;23;20013;-93
2022/09/25 12:31:22;;;;;;;0.43;0.20;;;;;;;-145.06;100.00;60892.56;5977680;23;20036;-93
2022/09/25 12:34:36;;;;;;;0.20;0.20;;;;;;;-145.06;100.00;60892.56;5978195;23;20001;-92
2022/09/25 12:37:31;;;;;;;0.65;0.13;;;;;;;-145.06;100.00;60892.56;5978418;23;20392;-92
2022/09/25 12:40:29;;;;;;;0.93;0.20;;;;;;;-145.06;100.00;60892.56;5978214;23;20005;-91
2022/09/25 12:43:16;;;;;;;0.50;0.20;;;;;;;-145.06;100.00;60892.56;5978415;23;20005;-93
2022/09/25 12:46:14;;;;;;;0.20;0.20;;;;;;;-145.06;100.00;60892.56;5977831;23;20877;-92
2022/09/25 12:49:04;;;;;;;0.77;0.20;;;;;;;-145.06;100.00;60892.56;5978415;23;20495;-92